Time;durP1;ratioP1;P1;durP2;ratioP2;P2;SDS_P1;SDS_P2;PMS_P1;PMS_P2;Temp;Humidity;BMP_temperature;BMP_pressure;BME280_temperature;BME280_humidity;BME280_pressure;Samples;Min_cycle;Max_cycle;Signal;HPM_P1;HPM_P2
2021/11/05 00:00:47;;;;;;;3.53;2.80;;;12.90;78.00;;;;;;5132305;28;20043;-63
2021/11/05 00:03:16;;;;;;;4.65;2.85;;;12.80;78.00;;;;;;5132514;28;20122;-62
2021/11/05 00:05:42;;;;;;;3.33;2.53;;;12.90;78.10;;;;;;5132579;28;20070;-62
2021/11/05 00:08:17;;;;;;;3.08;2.38;;;12.90;78.10;;;;;;5132895;28;20131;-62
2021/11/05 00:10:44;;;;;;;3.00;2.38;;;12.90;78.10;;;;;;5132006;28;20043;-62
2021/11/05 00:13:11;;;;;;;3.03;2.40;;;12.90;78.10;;;;;;5131941;28;20031;-62
2021/11/05 00:15:37;;;;;;;5.28;2.97;;;12.90;78.10;;;;;;5132224;28;20118;-63
2021/11/05 00:18:03;;;;;;;3.97;3.08;;;12.90;78.10;;;;;;5132424;28;20441;-62
2021/11/05 00:20:30;;;;;;;3.28;2.97;;;12.90;78.10;;;;;;5132172;28;20031;-63
2021/11/05 00:22:55;;;;;;;3.40;2.67;;;12.80;78.00;;;;;;5132561;28;20031;-63
2021/11/05 00:25:22;;;;;;;2.72;2.42;;;12.90;78.10;;;;;;5133787;27;20480;-63
2021/11/05 00:27:48;;;;;;;2.88;2.58;;;12.90;78.10;;;;;;5135877;27;20050;-63
2021/11/05 00:30:14;;;;;;;3.55;2.33;;;12.70;78.00;;;;;;5134811;27;20130;-61
2021/11/05 00:32:41;;;;;;;2.65;2.45;;;12.90;78.10;;;;;;5135863;27;20043;-63
2021/11/05 00:35:07;;;;;;;3.63;2.70;;;12.90;78.10;;;;;;5135818;27;20049;-63
2021/11/05 00:37:33;;;;;;;3.58;2.70;;;12.90;78.10;;;;;;5135582;27;20551;-63
2021/11/05 00:39:59;;;;;;;2.90;2.60;;;12.80;78.70;;;;;;5135820;27;20114;-63
2021/11/05 00:42:25;;;;;;;2.80;2.47;;;12.80;78.00;;;;;;5135527;27;20054;-62
2021/11/05 00:44:50;;;;;;;2.80;2.22;;;12.90;78.10;;;;;;5135141;27;20032;-63
2021/11/05 00:47:16;;;;;;;2.83;2.35;;;12.90;78.10;;;;;;5134952;27;20074;-62
2021/11/05 00:49:43;;;;;;;3.55;2.55;;;12.90;78.10;;;;;;5135101;27;20047;-61
2021/11/05 00:52:09;;;;;;;2.88;2.30;;;12.90;78.10;;;;;;5135325;27;20041;-63
2021/11/05 00:54:34;;;;;;;2.92;2.33;;;12.80;78.10;;;;;;5135214;27;20398;-62
2021/11/05 00:57:00;;;;;;;2.30;2.10;;;12.80;78.00;;;;;;5135498;27;20088;-63
2021/11/05 00:59:26;;;;;;;4.05;2.40;;;12.90;78.10;;;;;;5135451;27;20420;-62
2021/11/05 01:01:52;;;;;;;2.58;2.22;;;12.90;78.10;;;;;;5134646;27;20042;-62
2021/11/05 01:04:18;;;;;;;2.38;2.17;;;12.90;78.10;;;;;;5135527;27;20092;-63
2021/11/05 01:06:44;;;;;;;2.80;2.50;;;12.90;78.10;;;;;;5116328;27;20043;-63
2021/11/05 01:09:09;;;;;;;2.30;2.05;;;12.90;78.10;;;;;;5135140;27;20070;-63
2021/11/05 01:11:35;;;;;;;2.30;2.03;;;12.90;78.10;;;;;;5134742;27;20027;-62
2021/11/05 01:14:01;;;;;;;2.20;2.00;;;13.00;78.40;;;;;;5134599;27;20035;-62
2021/11/05 01:16:27;;;;;;;2.92;2.42;;;12.90;78.10;;;;;;5134725;27;20039;-62
2021/11/05 01:18:53;;;;;;;2.45;2.10;;;12.90;78.10;;;;;;5134593;27;20124;-63
2021/11/05 01:21:19;;;;;;;2.47;2.03;;;12.90;78.10;;;;;;5134557;27;20038;-63
2021/11/05 01:23:45;;;;;;;2.30;2.10;;;12.90;78.10;;;;;;5134816;27;20050;-62
2021/11/05 01:26:11;;;;;;;2.13;1.90;;;12.90;78.10;;;;;;5134704;27;20471;-62
2021/11/05 01:28:37;;;;;;;1.77;1.52;;;12.90;78.10;;;;;;5134773;27;20074;-63
2021/11/05 01:31:03;;;;;;;2.30;2.10;;;12.90;78.10;;;;;;5134357;27;20083;-63
2021/11/05 01:33:29;;;;;;;2.30;2.05;;;12.90;78.10;;;;;;5133786;27;20050;-62
2021/11/05 01:35:55;;;;;;;2.58;2.05;;;12.90;78.10;;;;;;5134564;27;20039;-63
2021/11/05 01:38:20;;;;;;;2.78;1.98;;;12.80;78.00;;;;;;5134640;27;20402;-62
2021/11/05 01:40:46;;;;;;;2.90;2.40;;;12.90;78.10;;;;;;5115881;27;20118;-63
2021/11/05 01:43:13;;;;;;;1.98;1.77;;;12.90;78.10;;;;;;5134052;27;20044;-63
2021/11/05 01:45:40;;;;;;;2.70;2.20;;;12.90;78.10;;;;;;5134544;27;20110;-63
2021/11/05 01:48:06;;;;;;;2.20;1.80;;;12.90;78.10;;;;;;5134377;27;20046;-60
2021/11/05 01:50:32;;;;;;;2.45;2.05;;;12.80;78.00;;;;;;5134036;27;20543;-61
2021/11/05 01:52:58;;;;;;;2.83;1.60;;;12.90;78.10;;;;;;5134075;27;20122;-60
2021/11/05 01:55:25;;;;;;;3.58;1.95;;;12.90;78.10;;;;;;5134247;27;20407;-61
2021/11/05 01:57:52;;;;;;;2.10;1.90;;;12.90;78.10;;;;;;5134476;27;20396;-61
2021/11/05 02:00:21;;;;;;;2.22;1.80;;;12.90;78.10;;;;;;5134414;27;20046;-61
2021/11/05 02:02:48;;;;;;;2.20;1.75;;;12.90;78.10;;;;;;5115311;27;20131;-61
2021/11/05 02:05:16;;;;;;;2.50;1.92;;;12.90;78.10;;;;;;5133411;27;20089;-61
2021/11/05 02:07:51;;;;;;;1.75;1.45;;;12.80;78.00;;;;;;5131700;27;20134;-61
2021/11/05 02:10:18;;;;;;;1.85;1.60;;;12.90;78.10;;;;;;5134308;27;20039;-60
2021/11/05 02:12:44;;;;;;;1.70;1.40;;;12.80;78.00;;;;;;5134050;27;20083;-61
2021/11/05 02:15:11;;;;;;;1.60;1.40;;;12.80;78.00;;;;;;5133803;27;20050;-61
2021/11/05 02:17:37;;;;;;;1.88;1.63;;;12.90;78.10;;;;;;5133577;27;20035;-61
2021/11/05 02:20:07;;;;;;;1.98;1.70;;;12.90;78.10;;;;;;5133647;27;20107;-61
2021/11/05 02:22:33;;;;;;;3.33;1.67;;;12.90;78.10;;;;;;5133789;27;20114;-61
2021/11/05 02:24:59;;;;;;;2.85;1.80;;;12.80;78.00;;;;;;5133483;27;20047;-61
2021/11/05 02:27:29;;;;;;;1.65;1.42;;;12.90;78.10;;;;;;5133669;27;20035;-61
2021/11/05 02:29:56;;;;;;;2.13;1.65;;;12.90;78.00;;;;;;5114899;27;20047;-61
2021/11/05 02:32:22;;;;;;;1.45;1.25;;;12.80;78.00;;;;;;5130814;27;20039;-61
2021/11/05 02:34:48;;;;;;;1.83;1.60;;;12.80;78.00;;;;;;5133607;27;20125;-60
2021/11/05 02:37:24;;;;;;;1.73;1.63;;;12.90;78.10;;;;;;5132572;27;20119;-60
2021/11/05 02:39:50;;;;;;;1.60;1.50;;;12.90;78.10;;;;;;5113560;27;20043;-61
2021/11/05 02:42:16;;;;;;;1.67;1.58;;;12.80;78.00;;;;;;5133565;27;20044;-60
2021/11/05 02:44:42;;;;;;;1.48;1.30;;;12.80;78.00;;;;;;5130706;27;20070;-60
2021/11/05 02:47:27;;;;;;;1.42;1.33;;;12.80;78.00;;;;;;5132736;27;20065;-60
2021/11/05 02:50:04;;;;;;;2.40;1.70;;;12.80;77.90;;;;;;5131826;27;20050;-60
2021/11/05 02:52:29;;;;;;;1.50;1.40;;;12.80;78.00;;;;;;5130955;27;20050;-61
2021/11/05 02:54:55;;;;;;;2.08;1.50;;;12.80;78.00;;;;;;5133334;27;20043;-61
2021/11/05 02:57:21;;;;;;;1.60;1.50;;;12.70;78.60;;;;;;5114471;27;20447;-61
2021/11/05 02:59:46;;;;;;;1.65;1.40;;;12.80;78.00;;;;;;5133132;27;20084;-61
2021/11/05 03:02:12;;;;;;;1.55;1.35;;;12.80;78.00;;;;;;5133260;27;20084;-60
2021/11/05 03:04:38;;;;;;;1.52;1.42;;;12.90;78.10;;;;;;5132916;27;20045;-61
2021/11/05 03:07:07;;;;;;;2.25;1.55;;;12.80;78.00;;;;;;5133199;27;20432;-60
2021/11/05 03:09:37;;;;;;;1.60;1.40;;;12.80;78.00;;;;;;5132146;27;20348;-61
2021/11/05 03:12:04;;;;;;;1.50;1.40;;;12.80;78.00;;;;;;5130544;27;20440;-61
2021/11/05 03:14:29;;;;;;;1.80;1.40;;;12.80;78.00;;;;;;5132547;27;20091;-61
2021/11/05 03:16:57;;;;;;;1.60;1.50;;;12.80;78.00;;;;;;5132999;28;20035;-61
2021/11/05 03:19:22;;;;;;;1.80;1.45;;;12.80;78.00;;;;;;5129987;28;20440;-60
2021/11/05 03:21:48;;;;;;;1.70;1.30;;;12.80;78.00;;;;;;5133089;28;20177;-61
2021/11/05 03:24:14;;;;;;;1.70;1.52;;;12.80;78.10;;;;;;5132298;28;20040;-61
2021/11/05 03:26:39;;;;;;;1.95;1.38;;;12.80;78.00;;;;;;5132864;28;20052;-61
2021/11/05 03:29:05;;;;;;;1.17;1.08;;;12.80;78.00;;;;;;5132136;28;20114;-60
2021/11/05 03:31:32;;;;;;;2.13;1.40;;;12.80;78.00;;;;;;5132897;28;20046;-61
2021/11/05 03:33:58;;;;;;;1.83;1.10;;;12.80;78.00;;;;;;5132449;28;20491;-61
2021/11/05 03:36:24;;;;;;;1.45;1.20;;;12.80;78.10;;;;;;5132694;28;20043;-61
2021/11/05 03:38:50;;;;;;;1.55;1.25;;;12.80;78.10;;;;;;5132669;28;20039;-61
2021/11/05 03:41:16;;;;;;;1.92;1.58;;;12.80;78.10;;;;;;5132051;28;20074;-61
2021/11/05 03:43:42;;;;;;;1.17;1.08;;;12.80;78.70;;;;;;5129920;28;20049;-60
2021/11/05 03:46:08;;;;;;;1.75;1.38;;;12.80;78.10;;;;;;5114345;28;20978;-58
2021/11/05 03:48:39;;;;;;;1.60;1.10;;;12.80;78.10;;;;;;5132788;28;20514;-60
2021/11/05 03:51:06;;;;;;;1.30;1.20;;;12.80;78.10;;;;;;5130158;28;20043;-61
2021/11/05 03:53:32;;;;;;;1.48;1.20;;;12.80;78.10;;;;;;5132713;28;20043;-61
2021/11/05 03:55:58;;;;;;;1.35;1.15;;;12.80;78.10;;;;;;5132226;28;20038;-60
2021/11/05 03:58:24;;;;;;;1.30;1.20;;;12.80;78.10;;;;;;5132694;28;20150;-60
2021/11/05 04:00:50;;;;;;;1.20;1.05;;;12.80;78.10;;;;;;5134419;27;20039;-58
2021/11/05 04:03:16;;;;;;;2.13;1.30;;;12.80;78.10;;;;;;5136715;27;20084;-60
2021/11/05 04:05:42;;;;;;;1.45;1.00;;;12.80;78.00;;;;;;5133882;27;20046;-61
2021/11/05 04:08:08;;;;;;;1.85;1.40;;;12.80;78.10;;;;;;5118252;27;20039;-60
2021/11/05 04:10:34;;;;;;;1.40;1.30;;;12.80;78.10;;;;;;5118507;27;20031;-61
2021/11/05 04:13:01;;;;;;;1.25;1.10;;;12.80;78.10;;;;;;5134999;27;20503;-61
2021/11/05 04:15:28;;;;;;;1.30;1.20;;;12.80;78.10;;;;;;5117000;27;20520;-61
2021/11/05 04:17:53;;;;;;;1.00;0.90;;;12.80;78.10;;;;;;5136150;27;20494;-61
2021/11/05 04:20:19;;;;;;;1.73;1.30;;;12.80;78.10;;;;;;5136292;27;20042;-61
2021/11/05 04:22:45;;;;;;;1.17;0.98;;;12.80;78.10;;;;;;5135760;27;20139;-59
2021/11/05 04:25:11;;;;;;;1.13;0.90;;;12.80;78.10;;;;;;5135908;27;20107;-61
2021/11/05 04:27:37;;;;;;;1.30;1.17;;;12.80;78.10;;;;;;5135644;27;20066;-61
2021/11/05 04:30:06;;;;;;;1.48;1.30;;;12.80;78.10;;;;;;5117172;27;20043;-61
2021/11/05 04:32:32;;;;;;;1.20;1.00;;;12.80;78.10;;;;;;5135842;27;20074;-61
2021/11/05 04:34:58;;;;;;;1.02;0.93;;;12.90;78.10;;;;;;5135351;27;20092;-62
2021/11/05 04:37:23;;;;;;;0.82;0.80;;;12.80;78.10;;;;;;5135675;27;20065;-62
2021/11/05 04:39:49;;;;;;;1.40;1.27;;;12.80;78.10;;;;;;5135809;27;20039;-62
2021/11/05 04:42:15;;;;;;;1.80;1.20;;;12.80;78.10;;;;;;5135566;27;20116;-62
2021/11/05 04:44:41;;;;;;;1.70;1.17;;;12.80;78.00;;;;;;5135186;27;20462;-62
2021/11/05 04:47:07;;;;;;;1.98;1.10;;;12.80;78.00;;;;;;5135656;27;20046;-61
2021/11/05 04:49:32;;;;;;;1.10;1.00;;;12.90;78.10;;;;;;5135730;27;20088;-62
2021/11/05 04:51:58;;;;;;;1.45;1.25;;;12.80;78.00;;;;;;5135574;27;20421;-62
2021/11/05 04:54:23;;;;;;;1.52;1.20;;;12.80;78.60;;;;;;5134784;27;20039;-61
2021/11/05 04:56:50;;;;;;;0.88;0.88;;;12.80;78.00;;;;;;5135526;27;20088;-61
2021/11/05 04:59:18;;;;;;;2.45;1.30;;;12.80;78.00;;;;;;5134796;27;20078;-62
2021/11/05 05:01:44;;;;;;;1.02;0.90;;;12.80;78.00;;;;;;5132416;27;20047;-62
2021/11/05 05:04:09;;;;;;;0.95;0.95;;;12.80;78.00;;;;;;5135197;27;20099;-62
2021/11/05 05:06:35;;;;;;;0.82;0.80;;;12.80;78.00;;;;;;5134936;27;20387;-62
2021/11/05 05:09:01;;;;;;;1.13;1.10;;;12.80;78.00;;;;;;5135156;27;20047;-61
2021/11/05 05:11:27;;;;;;;1.10;1.00;;;12.90;78.10;;;;;;5134827;27;20134;-62
2021/11/05 05:13:53;;;;;;;1.90;1.00;;;12.80;78.00;;;;;;5134932;27;20058;-61
2021/11/05 05:16:19;;;;;;;0.93;0.90;;;12.80;78.00;;;;;;5134369;27;20042;-62
2021/11/05 05:18:46;;;;;;;0.93;0.93;;;12.80;78.00;;;;;;5135052;27;20221;-62
2021/11/05 05:21:12;;;;;;;1.20;1.10;;;12.80;78.00;;;;;;5116496;27;20035;-62
2021/11/05 05:23:38;;;;;;;1.60;0.90;;;12.80;78.00;;;;;;5135007;27;20528;-61
2021/11/05 05:26:04;;;;;;;1.10;0.98;;;12.80;78.00;;;;;;5134716;27;20088;-61
2021/11/05 05:28:31;;;;;;;1.20;1.10;;;12.80;78.10;;;;;;5132957;27;20436;-62
2021/11/05 05:31:01;;;;;;;2.38;1.00;;;12.80;78.00;;;;;;5115503;27;20138;-62
2021/11/05 05:33:27;;;;;;;1.15;0.98;;;12.80;78.10;;;;;;5132415;27;20082;-62
2021/11/05 05:35:53;;;;;;;1.30;0.93;;;12.80;78.10;;;;;;5134386;27;20460;-61
2021/11/05 05:38:18;;;;;;;1.13;0.70;;;12.80;78.00;;;;;;5115649;27;20418;-62
2021/11/05 05:40:44;;;;;;;1.75;1.50;;;12.80;78.00;;;;;;5134539;27;20046;-62
2021/11/05 05:43:10;;;;;;;1.13;0.80;;;12.80;78.00;;;;;;5134480;27;20055;-62
2021/11/05 05:45:35;;;;;;;0.90;0.77;;;12.80;78.10;;;;;;5134238;27;20450;-62
2021/11/05 05:48:01;;;;;;;0.80;0.70;;;12.80;78.10;;;;;;5133747;27;20043;-62
2021/11/05 05:50:27;;;;;;;0.70;0.70;;;12.80;78.00;;;;;;5134173;27;20027;-62
2021/11/05 05:52:53;;;;;;;1.08;0.70;;;12.80;78.00;;;;;;5134460;27;20076;-62
2021/11/05 05:55:18;;;;;;;1.00;0.90;;;12.80;78.10;;;;;;5134484;27;20031;-62
2021/11/05 05:57:44;;;;;;;0.82;0.80;;;12.80;78.00;;;;;;5134163;27;20114;-62
2021/11/05 06:00:14;;;;;;;0.88;0.80;;;12.80;78.10;;;;;;5133792;27;20118;-62
2021/11/05 06:02:40;;;;;;;0.98;0.88;;;12.80;78.00;;;;;;5133390;27;20035;-62
2021/11/05 06:05:07;;;;;;;2.08;0.93;;;12.80;78.00;;;;;;5134304;27;20035;-62
2021/11/05 06:07:33;;;;;;;0.60;0.60;;;12.80;78.00;;;;;;5134090;27;20039;-62
2021/11/05 06:09:59;;;;;;;0.70;0.60;;;12.60;77.90;;;;;;5133570;27;20126;-61
2021/11/05 06:12:25;;;;;;;1.50;1.00;;;12.80;78.00;;;;;;5133988;27;20114;-62
2021/11/05 06:14:51;;;;;;;1.10;0.95;;;12.80;78.00;;;;;;5115643;27;20062;-62
2021/11/05 06:17:17;;;;;;;0.82;0.80;;;12.80;78.00;;;;;;5133612;27;20027;-61
2021/11/05 06:19:43;;;;;;;0.75;0.75;;;12.70;78.00;;;;;;5130320;27;20043;-62
2021/11/05 06:22:09;;;;;;;0.80;0.80;;;12.80;78.00;;;;;;5133285;27;20034;-61
2021/11/05 06:24:35;;;;;;;1.10;0.80;;;12.90;78.10;;;;;;5133528;27;20035;-62
2021/11/05 06:27:00;;;;;;;1.05;0.95;;;12.80;78.10;;;;;;5133794;27;20408;-62
2021/11/05 06:29:26;;;;;;;0.80;0.63;;;12.80;78.00;;;;;;5133615;27;20063;-62
2021/11/05 06:31:52;;;;;;;1.13;0.70;;;12.80;78.70;;;;;;5133375;27;20062;-61
2021/11/05 06:34:18;;;;;;;1.00;0.75;;;12.80;78.10;;;;;;5132876;27;20043;-62
2021/11/05 06:36:44;;;;;;;1.17;0.80;;;12.80;78.10;;;;;;5133417;27;20510;-62
2021/11/05 06:39:10;;;;;;;1.65;0.77;;;12.80;78.70;;;;;;5133140;27;20544;-62
2021/11/05 06:41:35;;;;;;;2.58;0.90;;;12.70;78.00;;;;;;5133607;27;20049;-62
2021/11/05 06:44:02;;;;;;;0.82;0.80;;;12.80;78.10;;;;;;5133870;27;20118;-62
2021/11/05 06:46:27;;;;;;;0.88;0.82;;;12.80;78.10;;;;;;5133993;27;20027;-62
2021/11/05 06:48:53;;;;;;;1.02;0.80;;;12.70;78.00;;;;;;5133641;27;20065;-61
2021/11/05 06:51:19;;;;;;;0.80;0.80;;;12.80;78.10;;;;;;5132768;27;20065;-61
2021/11/05 06:53:45;;;;;;;1.27;1.00;;;12.80;78.00;;;;;;5114525;27;20183;-62
2021/11/05 06:56:11;;;;;;;1.13;0.70;;;12.80;78.00;;;;;;5114939;27;20054;-62
2021/11/05 06:58:38;;;;;;;0.65;0.60;;;12.80;78.00;;;;;;5133372;27;20498;-62
2021/11/05 07:01:05;;;;;;;0.93;0.77;;;12.80;78.00;;;;;;5133643;27;20070;-61
2021/11/05 07:03:31;;;;;;;0.63;0.63;;;12.80;78.00;;;;;;5133486;27;20053;-61
2021/11/05 07:05:58;;;;;;;0.75;0.65;;;12.80;78.00;;;;;;5132333;27;20114;-62
2021/11/05 07:08:25;;;;;;;0.77;0.70;;;12.80;78.00;;;;;;5133566;27;20047;-63
2021/11/05 07:10:50;;;;;;;0.77;0.77;;;12.80;78.00;;;;;;5133248;27;20035;-61
2021/11/05 07:13:16;;;;;;;0.68;0.68;;;12.80;78.00;;;;;;5133086;27;20142;-62
2021/11/05 07:15:42;;;;;;;1.25;0.60;;;12.60;77.90;;;;;;5133061;27;20590;-60
2021/11/05 07:18:08;;;;;;;0.70;0.70;;;12.80;78.00;;;;;;5133238;27;20102;-62
2021/11/05 07:20:35;;;;;;;0.80;0.80;;;12.80;78.00;;;;;;5133264;28;20043;-62
2021/11/05 07:23:02;;;;;;;0.65;0.65;;;12.80;77.90;;;;;;5132889;28;20466;-61
2021/11/05 07:25:27;;;;;;;1.08;0.98;;;12.60;77.80;;;;;;5133016;28;20054;-60
2021/11/05 07:27:53;;;;;;;0.80;0.80;;;12.80;77.90;;;;;;5133049;28;20459;-62
2021/11/05 07:30:19;;;;;;;0.60;0.60;;;12.80;77.90;;;;;;5133033;28;20058;-62
2021/11/05 07:32:46;;;;;;;0.80;0.80;;;12.80;77.90;;;;;;5132990;28;20123;-61
2021/11/05 07:35:16;;;;;;;1.08;0.80;;;12.70;77.90;;;;;;5136554;27;20042;-61
2021/11/05 07:37:42;;;;;;;0.85;0.70;;;12.80;78.00;;;;;;5136142;27;20043;-61
2021/11/05 07:40:09;;;;;;;1.08;0.70;;;12.80;77.90;;;;;;5137214;27;20495;-62
2021/11/05 07:42:39;;;;;;;0.95;0.77;;;12.80;78.00;;;;;;5137068;27;20043;-62
2021/11/05 07:45:07;;;;;;;0.80;0.73;;;12.80;78.00;;;;;;5118779;27;20502;-61
2021/11/05 07:47:36;;;;;;;1.38;0.60;;;12.70;77.90;;;;;;5137107;27;20043;-61
2021/11/05 07:50:03;;;;;;;0.68;0.65;;;12.80;77.90;;;;;;5136989;27;20039;-61
2021/11/05 07:52:29;;;;;;;1.15;0.90;;;12.80;78.00;;;;;;5136931;27;20039;-61
2021/11/05 07:54:54;;;;;;;1.48;0.77;;;12.80;78.00;;;;;;5118585;27;20054;-61
2021/11/05 07:57:20;;;;;;;0.52;0.52;;;12.80;78.00;;;;;;5136812;27;20043;-61
2021/11/05 07:59:46;;;;;;;0.80;0.60;;;12.80;78.00;;;;;;5137004;27;20054;-62
2021/11/05 08:02:13;;;;;;;1.83;0.80;;;12.80;78.00;;;;;;5118498;27;20047;-61
2021/11/05 08:04:39;;;;;;;1.15;0.60;;;12.70;78.00;;;;;;5136892;27;20044;-61
2021/11/05 08:07:05;;;;;;;1.00;0.73;;;12.80;78.10;;;;;;5136602;27;20031;-62
2021/11/05 08:09:31;;;;;;;0.95;0.55;;;12.80;78.00;;;;;;5136419;27;20103;-62
2021/11/05 08:11:57;;;;;;;0.70;0.70;;;12.70;78.00;;;;;;5118009;27;20118;-60
2021/11/05 08:14:22;;;;;;;1.60;0.70;;;12.80;78.00;;;;;;5136889;27;20042;-60
2021/11/05 08:16:48;;;;;;;0.77;0.60;;;12.70;78.00;;;;;;5137060;27;20501;-59
2021/11/05 08:19:14;;;;;;;0.63;0.60;;;12.70;78.00;;;;;;5099498;27;20062;-62
2021/11/05 08:21:40;;;;;;;0.82;0.70;;;12.70;78.00;;;;;;5156724;27;20039;-58
2021/11/05 08:24:07;;;;;;;0.70;0.60;;;12.80;78.00;;;;;;5143081;27;20045;-59
2021/11/05 08:26:33;;;;;;;0.75;0.60;;;12.70;78.00;;;;;;5136381;27;20096;-58
2021/11/05 08:29:00;;;;;;;0.77;0.70;;;12.80;78.10;;;;;;5136119;27;20035;-59
2021/11/05 08:31:27;;;;;;;0.60;0.60;;;12.70;78.00;;;;;;5136055;27;20047;-59
2021/11/05 08:33:53;;;;;;;0.68;0.68;;;12.70;78.00;;;;;;5136396;27;20087;-60
2021/11/05 08:36:22;;;;;;;0.98;0.60;;;12.80;78.10;;;;;;5135626;27;20036;-60
2021/11/05 08:38:48;;;;;;;0.70;0.70;;;12.70;78.10;;;;;;5135676;27;20376;-60
2021/11/05 08:41:17;;;;;;;0.60;0.60;;;12.70;78.10;;;;;;5135087;27;20549;-60
2021/11/05 08:43:45;;;;;;;0.73;0.60;;;12.70;78.10;;;;;;5135659;27;20051;-60
2021/11/05 08:46:16;;;;;;;0.55;0.55;;;12.70;78.10;;;;;;5115485;27;20063;-60
2021/11/05 08:48:42;;;;;;;1.15;0.57;;;12.80;78.10;;;;;;5135240;27;20043;-60
2021/11/05 08:51:10;;;;;;;0.77;0.65;;;12.80;78.10;;;;;;5116541;27;20428;-61
2021/11/05 08:53:36;;;;;;;0.95;0.63;;;12.70;78.70;;;;;;5132828;27;20114;-60
2021/11/05 08:56:02;;;;;;;0.73;0.65;;;12.70;78.10;;;;;;5105359;27;20044;-59
2021/11/05 08:58:28;;;;;;;2.75;0.75;;;12.80;78.20;;;;;;5134993;27;20508;-59
2021/11/05 09:00:54;;;;;;;0.77;0.73;;;12.70;78.10;;;;;;5116321;27;20054;-60
2021/11/05 09:03:20;;;;;;;0.45;0.43;;;12.80;78.10;;;;;;5134285;27;20518;-60
2021/11/05 09:05:45;;;;;;;0.63;0.52;;;12.70;78.10;;;;;;5116314;27;20035;-61
2021/11/05 09:08:11;;;;;;;1.02;0.90;;;12.80;78.20;;;;;;5133840;27;20246;-60
2021/11/05 09:10:37;;;;;;;0.63;0.63;;;12.80;78.10;;;;;;5135043;27;20072;-58
2021/11/05 09:13:04;;;;;;;0.98;0.70;;;12.80;78.20;;;;;;5139843;27;20490;-59
2021/11/05 09:15:31;;;;;;;0.80;0.70;;;12.80;78.20;;;;;;5116880;27;20058;-59
2021/11/05 09:17:58;;;;;;;1.80;0.80;;;12.70;78.10;;;;;;5134698;27;20050;-59
2021/11/05 09:20:25;;;;;;;0.63;0.50;;;12.80;78.30;;;;;;5133896;27;20043;-58
2021/11/05 09:22:51;;;;;;;0.98;0.70;;;12.70;78.20;;;;;;5134251;27;20045;-60
2021/11/05 09:25:17;;;;;;;0.98;0.70;;;12.80;78.20;;;;;;5134564;27;20118;-60
2021/11/05 09:27:44;;;;;;;1.13;0.70;;;12.80;78.20;;;;;;5134475;27;20179;-58
2021/11/05 09:30:11;;;;;;;0.70;0.70;;;12.70;78.20;;;;;;5134156;27;20437;-60
2021/11/05 09:32:37;;;;;;;1.38;0.63;;;12.70;78.20;;;;;;5134596;27;20121;-59
2021/11/05 09:35:03;;;;;;;0.80;0.75;;;12.80;78.30;;;;;;5134199;27;20047;-59
2021/11/05 09:37:29;;;;;;;7.00;1.45;;;12.80;78.30;;;;;;5115832;27;20093;-59
2021/11/05 09:39:54;;;;;;;1.70;0.75;;;12.70;78.50;;;;;;5117353;27;20075;-59
2021/11/05 09:42:20;;;;;;;4.15;1.20;;;12.70;78.60;;;;;;5117248;27;20463;-60
2021/11/05 09:44:46;;;;;;;2.05;1.10;;;12.70;78.70;;;;;;5134904;27;20035;-60
2021/11/05 09:47:14;;;;;;;1.60;0.98;;;12.70;78.80;;;;;;5115818;27;20387;-59
2021/11/05 09:49:40;;;;;;;1.08;0.60;;;12.70;78.80;;;;;;5134819;27;20039;-59
2021/11/05 09:52:07;;;;;;;1.33;0.95;;;12.70;78.80;;;;;;5131327;27;20452;-60
2021/11/05 09:54:38;;;;;;;1.45;0.68;;;12.80;78.90;;;;;;5135056;27;20665;-59
2021/11/05 09:57:04;;;;;;;2.58;1.10;;;12.70;78.80;;;;;;5134833;27;20087;-60
2021/11/05 09:59:30;;;;;;;1.00;0.80;;;12.70;78.80;;;;;;5134796;27;20043;-60
2021/11/05 10:01:56;;;;;;;1.85;0.90;;;12.70;78.80;;;;;;5116233;27;20047;-59
2021/11/05 10:04:22;;;;;;;1.35;1.00;;;12.70;78.80;;;;;;5116016;27;20051;-58
2021/11/05 10:07:06;;;;;;;1.55;0.60;;;12.70;78.80;;;;;;5134724;27;20482;-60
2021/11/05 10:09:44;;;;;;;1.23;0.70;;;12.70;78.70;;;;;;5134818;27;20449;-60
2021/11/05 10:12:18;;;;;;;1.70;0.75;;;12.70;78.80;;;;;;5134546;27;20122;-60
2021/11/05 10:14:51;;;;;;;1.35;0.88;;;12.70;78.80;;;;;;5130128;27;20043;-59
2021/11/05 10:17:17;;;;;;;1.85;0.90;;;12.70;78.80;;;;;;5115347;27;20047;-60
2021/11/05 10:20:07;;;;;;;1.38;0.80;;;12.70;78.80;;;;;;5134596;27;20043;-60
2021/11/05 10:22:37;;;;;;;1.17;0.70;;;12.70;78.70;;;;;;5134357;27;20105;-60
2021/11/05 10:25:36;;;;;;;1.58;0.63;;;12.70;78.80;;;;;;5134140;27;20047;-59
2021/11/05 10:28:08;;;;;;;1.98;0.75;;;12.70;78.70;;;;;;5128834;27;20047;-59
2021/11/05 10:30:48;;;;;;;1.90;0.73;;;12.70;78.80;;;;;;5133961;27;20095;-60
2021/11/05 10:33:18;;;;;;;1.15;0.55;;;12.70;78.80;;;;;;5115757;27;20482;-60
2021/11/05 10:35:47;;;;;;;1.35;0.63;;;12.80;78.80;;;;;;5134068;27;20043;-60
2021/11/05 10:38:14;;;;;;;1.27;0.77;;;12.70;78.70;;;;;;5115481;27;20035;-60
2021/11/05 10:40:44;;;;;;;1.50;0.50;;;12.70;78.70;;;;;;5134419;27;20053;-60
2021/11/05 10:43:11;;;;;;;0.73;0.60;;;12.70;78.70;;;;;;5134007;27;20047;-60
2021/11/05 10:45:38;;;;;;;1.15;0.65;;;12.70;78.70;;;;;;5134202;27;20035;-59
2021/11/05 10:48:11;;;;;;;0.65;0.60;;;12.70;78.70;;;;;;5132960;27;20035;-60
2021/11/05 10:50:50;;;;;;;1.00;0.65;;;12.70;78.70;;;;;;5115437;27;20050;-60
2021/11/05 10:53:27;;;;;;;1.30;0.50;;;12.70;78.60;;;;;;5115522;27;20047;-60
2021/11/05 10:55:57;;;;;;;0.77;0.55;;;12.70;78.70;;;;;;5133306;27;20587;-59
2021/11/05 10:58:24;;;;;;;0.90;0.68;;;12.70;78.70;;;;;;5114286;27;20062;-60
2021/11/05 11:00:58;;;;;;;2.28;0.80;;;12.70;78.60;;;;;;5134012;27;20054;-60
2021/11/05 11:03:32;;;;;;;0.90;0.70;;;12.70;78.70;;;;;;5133287;27;20428;-60
2021/11/05 11:06:20;;;;;;;1.17;0.68;;;12.80;78.70;;;;;;5133449;27;20488;-60
2021/11/05 11:08:49;;;;;;;1.30;0.60;;;12.70;78.50;;;;;;5114991;27;20070;-60
2021/11/05 11:11:14;;;;;;;0.88;0.60;;;12.70;78.70;;;;;;5115004;27;20051;-60
2021/11/05 11:13:40;;;;;;;1.52;0.60;;;12.70;78.70;;;;;;5133863;27;20116;-60
2021/11/05 11:16:28;;;;;;;0.88;0.57;;;12.70;78.60;;;;;;5133515;27;20395;-60
2021/11/05 11:19:04;;;;;;;0.90;0.60;;;12.70;78.60;;;;;;5132762;27;20043;-60
2021/11/05 11:21:33;;;;;;;0.77;0.52;;;12.80;78.70;;;;;;5134034;28;20114;-61
2021/11/05 11:24:01;;;;;;;0.90;0.40;;;12.70;78.60;;;;;;5133817;28;20046;-60
2021/11/05 11:26:27;;;;;;;1.35;0.55;;;12.60;78.60;;;;;;5133678;28;20095;-60
2021/11/05 11:28:54;;;;;;;0.70;0.50;;;12.80;78.70;;;;;;5133222;28;20047;-60
2021/11/05 11:31:20;;;;;;;0.63;0.60;;;12.70;78.60;;;;;;5133211;28;20051;-60
2021/11/05 11:33:47;;;;;;;1.67;0.60;;;12.70;78.60;;;;;;5132495;28;20384;-59
2021/11/05 11:36:13;;;;;;;1.52;0.50;;;12.80;78.60;;;;;;5133318;28;20586;-60
2021/11/05 11:38:39;;;;;;;0.77;0.70;;;12.80;78.70;;;;;;5133582;28;20047;-60
2021/11/05 11:41:07;;;;;;;1.42;0.40;;;12.80;78.60;;;;;;5114509;28;20096;-60
2021/11/05 11:43:34;;;;;;;0.65;0.50;;;12.80;78.60;;;;;;5133266;28;20047;-60
2021/11/05 11:46:01;;;;;;;1.17;0.40;;;12.80;78.70;;;;;;5133138;28;20074;-60
2021/11/05 11:48:37;;;;;;;1.80;0.60;;;12.80;78.60;;;;;;5132918;28;20042;-60
2021/11/05 11:51:24;;;;;;;0.60;0.40;;;12.80;78.60;;;;;;5132660;28;20043;-60
2021/11/05 11:53:53;;;;;;;0.63;0.57;;;12.80;78.50;;;;;;5114877;28;20104;-60
2021/11/05 11:56:31;;;;;;;0.68;0.50;;;12.80;78.60;;;;;;5132889;28;20039;-60
2021/11/05 11:59:03;;;;;;;1.15;0.47;;;12.80;78.70;;;;;;5133409;28;20046;-59
2021/11/05 12:01:32;;;;;;;1.15;0.93;;;12.80;78.60;;;;;;5133118;28;20060;-60
2021/11/05 12:04:02;;;;;;;1.60;0.65;;;12.80;78.60;;;;;;5132849;28;20487;-59
2021/11/05 12:06:53;;;;;;;0.75;0.60;;;12.80;78.60;;;;;;5132879;28;20047;-60
2021/11/05 12:09:23;;;;;;;0.60;0.50;;;12.80;78.50;;;;;;5114541;28;20416;-60
2021/11/05 12:11:49;;;;;;;0.77;0.60;;;12.80;78.60;;;;;;5132821;28;20039;-60
2021/11/05 12:14:15;;;;;;;0.30;0.30;;;12.80;78.60;;;;;;5133412;28;20086;-60
2021/11/05 12:17:02;;;;;;;0.40;0.40;;;12.80;78.60;;;;;;5132929;28;20475;-60
2021/11/05 12:19:37;;;;;;;0.82;0.55;;;12.80;78.50;;;;;;5133292;28;20087;-60
2021/11/05 12:22:12;;;;;;;0.57;0.57;;;12.80;78.60;;;;;;5134777;27;20043;-58
2021/11/05 12:24:39;;;;;;;0.73;0.68;;;12.70;78.50;;;;;;5137358;27;20428;-60
2021/11/05 12:27:07;;;;;;;0.75;0.52;;;12.80;78.60;;;;;;5136905;27;20081;-59
2021/11/05 12:29:33;;;;;;;0.40;0.40;;;12.90;78.70;;;;;;5152944;27;20054;-60
2021/11/05 12:32:24;;;;;;;1.08;0.60;;;12.80;78.60;;;;;;5136580;27;20047;-60
2021/11/05 12:35:03;;;;;;;0.85;0.50;;;12.80;78.50;;;;;;5099795;27;20121;-59
2021/11/05 12:37:39;;;;;;;2.25;0.50;;;12.80;78.60;;;;;;5136137;27;20491;-60
2021/11/05 12:40:27;;;;;;;0.47;0.40;;;12.80;78.60;;;;;;5137136;27;20103;-60
2021/11/05 12:42:58;;;;;;;1.48;0.60;;;12.80;78.50;;;;;;5118459;27;20122;-60
2021/11/05 12:45:53;;;;;;;0.57;0.30;;;12.80;78.60;;;;;;5135448;27;20043;-60
2021/11/05 12:48:38;;;;;;;0.50;0.38;;;12.80;78.50;;;;;;5108079;27;20039;-60
2021/11/05 12:51:20;;;;;;;0.95;0.60;;;12.80;79.20;;;;;;5117791;27;20055;-60